createdAt,value
2018-12-03T00:02:08.644Z,117.63
2018-12-03T00:04:40.035Z,125.07
2018-12-03T00:07:12.279Z,97.00
2018-12-03T00:09:41.600Z,129.63
2018-12-03T00:12:10.897Z,126.50
2018-12-03T00:14:40.258Z,123.27
2018-12-03T00:17:09.563Z,137.97
2018-12-03T00:19:39.357Z,142.50
2018-12-03T00:22:10.139Z,142.33
2018-12-03T00:24:39.509Z,143.03
2018-12-03T00:27:08.903Z,141.20
2018-12-03T00:29:38.229Z,136.73
2018-12-03T00:32:09.092Z,154.53
2018-12-03T00:34:38.442Z,142.20
2018-12-03T00:37:07.771Z,131.50
2018-12-03T00:39:37.109Z,147.77
2018-12-03T00:42:06.411Z,155.10
2018-12-03T00:44:35.681Z,142.80
2018-12-03T00:47:05.122Z,150.77
2018-12-03T00:49:34.465Z,133.03
2018-12-03T00:52:03.823Z,156.57
2018-12-03T00:54:33.289Z,121.57
2018-12-03T00:57:03.940Z,149.00
2018-12-03T00:59:33.448Z,123.47
2018-12-03T01:02:02.817Z,140.03
2018-12-03T01:04:32.184Z,131.43
2018-12-03T01:07:01.504Z,133.90
2018-12-03T01:09:31.628Z,137.10
2018-12-03T01:12:01.171Z,128.77
2018-12-03T01:14:30.501Z,146.53
2018-12-03T01:16:59.850Z,155.63
2018-12-03T01:19:29.229Z,135.83
2018-12-03T01:21:58.533Z,138.40
2018-12-03T01:24:27.964Z,144.90
2018-12-03T01:26:57.328Z,143.60
2018-12-03T01:29:26.649Z,153.77
2018-12-03T01:31:56.349Z,132.27
2018-12-03T01:34:27.889Z,147.20
2018-12-03T01:36:57.279Z,142.67
2018-12-03T01:39:26.600Z,132.87
2018-12-03T01:41:55.939Z,158.40
2018-12-03T01:44:25.249Z,142.97
2018-12-03T01:46:54.655Z,156.23
2018-12-03T01:49:23.982Z,151.07
2018-12-03T01:51:53.286Z,160.60
2018-12-03T01:54:22.602Z,139.67
2018-12-03T01:56:55.340Z,147.33
2018-12-03T01:59:24.760Z,161.00
2018-12-03T02:01:54.277Z,121.17
2018-12-03T02:04:23.629Z,159.17
2018-12-03T02:06:52.914Z,150.13
2018-12-03T02:09:22.263Z,148.13
2018-12-03T02:11:51.600Z,167.33
2018-12-03T02:14:20.955Z,161.90
2018-12-03T02:16:50.243Z,173.97
2018-12-03T02:19:19.575Z,157.17
2018-12-03T02:21:48.900Z,138.57
2018-12-03T02:24:18.226Z,150.80
2018-12-03T02:26:47.593Z,155.43
2018-12-03T02:29:16.879Z,178.62
2018-12-03T02:31:46.150Z,157.17
2018-12-03T02:34:15.531Z,159.97
2018-12-03T02:36:44.839Z,145.20
2018-12-03T02:39:14.228Z,156.40
2018-12-03T02:41:50.305Z,152.17
2018-12-03T02:44:19.589Z,140.30
2018-12-03T02:46:48.876Z,151.10
2018-12-03T02:49:18.278Z,152.93
2018-12-03T02:51:49.434Z,153.97
2018-12-03T02:54:18.828Z,155.50
2018-12-03T02:56:48.120Z,152.53
2018-12-03T02:59:17.450Z,146.23
2018-12-03T03:01:46.795Z,140.63
2018-12-03T03:04:16.154Z,177.80
2018-12-03T03:06:45.505Z,140.80
2018-12-03T03:09:14.888Z,146.80
2018-12-03T03:11:44.164Z,148.60
2018-12-03T03:14:13.432Z,141.53
2018-12-03T03:16:48.033Z,134.03
2018-12-03T03:19:17.388Z,165.22
2018-12-03T03:21:46.675Z,157.30
2018-12-03T03:24:16.000Z,138.13
2018-12-03T03:26:45.324Z,131.17
2018-12-03T03:29:14.693Z,142.43
2018-12-03T03:31:44.985Z,143.80
2018-12-03T03:34:14.320Z,136.73
2018-12-03T03:36:43.638Z,124.90
2018-12-03T03:39:14.642Z,116.53
2018-12-03T03:41:43.999Z,118.97
2018-12-03T03:44:13.302Z,119.07
2018-12-03T03:46:42.626Z,124.13
2018-12-03T03:49:11.970Z,125.77
2018-12-03T03:51:41.292Z,130.93
2018-12-03T03:54:10.587Z,124.37
2018-12-03T03:56:39.894Z,151.05
2018-12-03T03:59:09.227Z,130.47
2018-12-03T04:01:38.552Z,123.37
2018-12-03T04:04:07.909Z,110.53
2018-12-03T04:06:37.204Z,126.53
2018-12-03T04:09:07.764Z,121.60
2018-12-03T04:11:37.071Z,133.85
2018-12-03T04:14:06.388Z,116.97
2018-12-03T04:16:35.693Z,133.13
2018-12-03T04:19:05.574Z,132.17
2018-12-03T04:21:34.834Z,128.77
2018-12-03T04:24:04.188Z,138.50
2018-12-03T04:26:33.439Z,126.23
2018-12-03T04:29:02.713Z,126.37
2018-12-03T04:31:32.073Z,134.33
2018-12-03T04:34:01.360Z,137.90
2018-12-03T04:36:30.711Z,134.80
2018-12-03T04:39:00.028Z,137.60
2018-12-03T04:41:29.333Z,142.97
2018-12-03T04:43:58.685Z,147.97
2018-12-03T04:46:28.055Z,129.53
2018-12-03T04:48:57.342Z,153.57
2018-12-03T04:51:26.678Z,142.30
2018-12-03T04:53:56.045Z,129.20
2018-12-03T04:56:25.380Z,126.27
2018-12-03T04:58:54.717Z,141.97
2018-12-03T05:01:24.101Z,120.90
2018-12-03T05:03:53.504Z,140.17
2018-12-03T05:06:22.871Z,162.77
2018-12-03T05:08:52.184Z,135.70
2018-12-03T05:11:21.479Z,135.57
2018-12-03T05:13:50.825Z,118.20
2018-12-03T05:16:20.188Z,119.50
2018-12-03T05:18:49.580Z,131.53
2018-12-03T05:21:18.931Z,129.30
2018-12-03T05:23:48.372Z,116.77
2018-12-03T05:26:17.647Z,125.47
2018-12-03T05:28:46.924Z,100.97
2018-12-03T05:31:16.235Z,117.87
2018-12-03T05:33:45.561Z,122.73
2018-12-03T05:36:14.882Z,119.03
2018-12-03T05:38:44.228Z,106.07
2018-12-03T05:41:13.543Z,107.37
2018-12-03T05:43:43.069Z,97.63
2018-12-03T05:46:12.458Z,115.20
2018-12-03T05:48:41.826Z,104.10
2018-12-03T05:51:11.183Z,100.17
2018-12-03T05:53:40.554Z,99.67
2018-12-03T05:56:09.876Z,104.23
2018-12-03T05:58:39.304Z,115.57
2018-12-03T06:01:08.649Z,111.53
2018-12-03T06:03:38.013Z,106.70
2018-12-03T06:06:07.390Z,109.10
2018-12-03T06:08:36.714Z,99.30
2018-12-03T06:11:06.078Z,101.73
2018-12-03T06:13:35.377Z,103.30
2018-12-03T06:16:04.780Z,123.33
2018-12-03T06:18:34.055Z,114.80
2018-12-03T06:21:03.414Z,111.93
2018-12-03T06:23:32.730Z,114.63
2018-12-03T06:26:02.005Z,92.43
2018-12-03T06:28:31.304Z,109.30
2018-12-03T06:31:00.587Z,103.33
2018-12-03T06:33:29.896Z,110.97
2018-12-03T06:35:59.256Z,116.03
2018-12-03T06:38:28.605Z,108.33
2018-12-03T06:40:57.921Z,115.00
2018-12-03T06:43:28.576Z,95.77
2018-12-03T06:45:57.996Z,115.77
2018-12-03T06:48:27.381Z,108.93
2018-12-03T06:50:56.703Z,108.17
2018-12-03T06:53:26.059Z,107.27
2018-12-03T06:55:55.381Z,99.53
2018-12-03T06:58:24.671Z,88.77
2018-12-03T07:00:54.018Z,117.17
2018-12-03T07:03:23.322Z,106.80
2018-12-03T07:05:52.652Z,116.67
2018-12-03T07:08:22.059Z,95.97
2018-12-03T07:10:51.584Z,107.07
2018-12-03T07:13:22.267Z,104.80
2018-12-03T07:15:55.433Z,100.00
2018-12-03T07:18:25.338Z,117.23
2018-12-03T07:20:55.267Z,101.93
2018-12-03T07:23:24.608Z,108.40
2018-12-03T07:25:53.921Z,105.07
2018-12-03T07:28:23.246Z,92.77
2018-12-03T07:30:52.584Z,114.63
2018-12-03T07:33:22.521Z,109.53
2018-12-03T07:35:51.798Z,118.17
2018-12-03T07:38:21.066Z,110.13
2018-12-03T07:40:50.419Z,97.13
2018-12-03T07:43:19.768Z,98.93
2018-12-03T07:45:49.043Z,103.90
2018-12-03T07:48:18.306Z,134.35
2018-12-03T07:50:47.655Z,104.17
2018-12-03T07:53:17.069Z,111.27
2018-12-03T07:55:46.403Z,125.23
2018-12-03T07:58:17.798Z,121.50
2018-12-03T08:00:49.747Z,112.23
2018-12-03T08:03:19.039Z,94.37
2018-12-03T08:05:48.324Z,103.17
2018-12-03T08:08:17.641Z,101.43
2018-12-03T08:10:50.663Z,94.30
2018-12-03T08:13:20.786Z,115.50
2018-12-03T08:15:50.095Z,99.57
2018-12-03T08:18:22.073Z,112.47
2018-12-03T08:20:54.580Z,113.57
2018-12-03T08:26:23.609Z,124.72
2018-12-03T08:28:52.956Z,125.30
2018-12-03T08:31:22.391Z,120.27
2018-12-03T08:33:51.704Z,113.50
2018-12-03T08:36:20.989Z,104.90
2018-12-03T08:38:50.347Z,114.03
2018-12-03T08:41:19.652Z,123.67
2018-12-03T08:43:48.949Z,136.30
2018-12-03T08:46:18.239Z,117.67
2018-12-03T08:48:47.659Z,122.57
2018-12-03T08:51:17.494Z,121.03
2018-12-03T08:53:48.937Z,117.00
2018-12-03T08:56:18.237Z,114.47
2018-12-03T08:58:47.608Z,111.30
2018-12-03T09:01:18.625Z,103.60
2018-12-03T09:03:53.341Z,106.50
2018-12-03T09:06:22.711Z,101.50
2018-12-03T09:08:52.553Z,105.17
2018-12-03T09:11:24.206Z,105.30
2018-12-03T09:13:54.813Z,101.57
2018-12-03T09:16:24.118Z,100.37
2018-12-03T09:18:53.723Z,102.07
2018-12-03T09:21:24.075Z,92.43
2018-12-03T09:23:59.318Z,93.10
2018-12-03T09:26:28.712Z,90.27
2018-12-03T09:28:57.992Z,97.80
2018-12-03T09:31:27.369Z,96.10
2018-12-03T09:33:59.097Z,94.00
2018-12-03T09:36:29.453Z,97.83
2018-12-03T09:39:08.786Z,108.72
2018-12-03T09:41:38.135Z,105.43
2018-12-03T09:44:08.304Z,102.53
2018-12-03T09:46:38.068Z,98.43
2018-12-03T09:49:08.423Z,97.37
2018-12-03T09:51:38.330Z,100.87
2018-12-03T09:54:09.978Z,85.50
2018-12-03T09:56:42.978Z,100.83
2018-12-03T09:59:16.072Z,98.10
2018-12-03T10:01:46.863Z,89.47
2018-12-03T10:04:19.697Z,93.33
2018-12-03T10:06:49.073Z,99.80
2018-12-03T10:09:18.442Z,94.13
2018-12-03T10:11:47.813Z,93.23
2018-12-03T10:14:19.605Z,100.55
2018-12-03T10:16:48.890Z,98.17
2018-12-03T10:19:18.315Z,98.40
2018-12-03T10:21:48.198Z,103.33
2018-12-03T10:24:17.858Z,100.20
2018-12-03T10:26:47.260Z,101.70
2018-12-03T10:29:20.276Z,89.20
2018-12-03T10:31:49.769Z,95.90
2018-12-03T10:34:20.002Z,82.77
2018-12-03T10:36:57.165Z,88.50
2018-12-03T10:39:29.522Z,87.90
2018-12-03T10:42:15.417Z,96.07
2018-12-03T10:44:45.096Z,93.80
2018-12-03T10:47:14.791Z,94.67
2018-12-03T10:49:44.107Z,102.13
2018-12-03T10:52:18.948Z,99.10
2018-12-03T10:54:48.395Z,95.40
2018-12-03T10:57:17.761Z,96.80
2018-12-03T10:59:53.770Z,98.67
2018-12-03T11:02:31.578Z,100.60
2018-12-03T11:05:06.144Z,73.60
2018-12-03T11:07:35.454Z,90.10
2018-12-03T11:10:06.140Z,79.77
2018-12-03T11:12:35.505Z,76.45
2018-12-03T11:15:13.995Z,90.57
2018-12-03T11:17:43.633Z,88.50
2018-12-03T11:20:19.611Z,102.47
2018-12-03T11:22:48.930Z,96.43
2018-12-03T11:25:21.047Z,98.37
2018-12-03T11:27:51.358Z,104.60
2018-12-03T11:30:23.175Z,95.20
2018-12-03T11:32:53.582Z,95.00
2018-12-03T11:35:27.833Z,106.97
2018-12-03T11:38:07.548Z,91.10
2018-12-03T11:40:47.371Z,91.53
2018-12-03T11:43:16.837Z,99.03
2018-12-03T11:45:46.162Z,98.90
2018-12-03T11:48:15.976Z,103.47
2018-12-03T11:50:46.464Z,92.50
2018-12-03T11:53:15.799Z,105.07
2018-12-03T11:55:45.157Z,101.57
2018-12-03T11:58:14.431Z,104.77
2018-12-03T12:00:43.782Z,100.33
2018-12-03T12:03:13.130Z,97.47
2018-12-03T12:05:42.612Z,100.87
2018-12-03T12:08:12.934Z,101.53
2018-12-03T12:10:42.316Z,105.47
2018-12-03T12:13:13.927Z,109.33
2018-12-03T12:15:43.728Z,106.10
2018-12-03T12:18:13.420Z,95.93
2018-12-03T12:20:43.958Z,103.80
2018-12-03T12:23:13.562Z,123.78
2018-12-03T12:25:42.861Z,111.13
2018-12-03T12:28:12.258Z,110.17
2018-12-03T12:30:41.562Z,107.93
2018-12-03T12:33:10.892Z,109.30
2018-12-03T12:35:40.371Z,105.53
2018-12-03T12:38:09.774Z,102.17
2018-12-03T12:40:39.373Z,114.60
2018-12-03T12:43:09.065Z,111.57
2018-12-03T12:45:46.413Z,97.20
2018-12-03T12:48:15.802Z,102.07
2018-12-03T12:50:45.301Z,107.70
2018-12-03T12:53:14.621Z,92.83
2018-12-03T12:55:43.980Z,94.97
2018-12-03T12:58:15.186Z,99.70
2018-12-03T13:00:44.578Z,98.00
2018-12-03T13:03:13.920Z,98.70
2018-12-03T13:05:43.303Z,106.83
2018-12-03T13:08:13.674Z,106.57
2018-12-03T13:10:43.046Z,106.23
2018-12-03T13:13:12.376Z,104.60
2018-12-03T13:15:41.707Z,98.03
2018-12-03T13:18:12.465Z,104.20
2018-12-03T13:20:41.812Z,99.17
2018-12-03T13:23:11.221Z,89.77
2018-12-03T13:25:40.623Z,98.33
2018-12-03T13:28:10.434Z,89.97
2018-12-03T13:30:39.728Z,88.20
2018-12-03T13:33:09.123Z,93.57
2018-12-03T13:35:38.683Z,109.97
2018-12-03T13:38:08.238Z,113.57
2018-12-03T13:40:37.653Z,111.03
2018-12-03T13:43:07.724Z,108.07
2018-12-03T13:45:37.137Z,117.90
2018-12-03T13:48:07.574Z,101.30
2018-12-03T13:50:36.904Z,110.73
2018-12-03T13:53:06.498Z,116.03
2018-12-03T13:55:37.633Z,114.53
2018-12-03T13:58:08.700Z,114.93
2018-12-03T14:00:38.303Z,113.47
2018-12-03T14:03:20.303Z,114.30
2018-12-03T14:05:59.421Z,110.57
2018-12-03T14:08:44.464Z,115.33
2018-12-03T14:12:25.231Z,118.37
2018-12-03T14:15:05.490Z,121.43
2018-12-03T14:18:06.236Z,121.77
2018-12-03T14:20:39.496Z,128.93
2018-12-03T14:23:11.784Z,123.70
2018-12-03T14:25:41.658Z,108.67
2018-12-03T14:28:11.060Z,108.27
2018-12-03T14:30:41.366Z,110.00
2018-12-03T14:33:10.962Z,105.23
2018-12-03T14:35:40.359Z,105.47
2018-12-03T14:38:09.802Z,112.97
2018-12-03T14:40:39.146Z,112.43
2018-12-03T14:43:08.549Z,105.63
2018-12-03T14:45:38.031Z,98.93
2018-12-03T14:48:07.304Z,106.30
2018-12-03T14:50:36.633Z,112.57
2018-12-03T14:53:07.892Z,112.10
2018-12-03T14:55:40.380Z,120.02
2018-12-03T14:58:09.732Z,119.07
2018-12-03T15:03:11.800Z,108.27
2018-12-03T15:05:41.098Z,95.33
2018-12-03T15:08:10.522Z,102.97
2018-12-03T15:10:39.823Z,122.00
2018-12-03T15:13:09.110Z,113.67
2018-12-03T15:15:38.450Z,120.70
2018-12-03T15:18:07.807Z,116.60
2018-12-03T15:20:37.338Z,119.80
2018-12-03T15:23:06.751Z,125.37
2018-12-03T15:25:36.062Z,119.80
2018-12-03T15:28:06.896Z,118.13
2018-12-03T15:30:36.224Z,121.30
2018-12-03T15:35:41.887Z,118.00
2018-12-03T15:38:11.227Z,106.03
2018-12-03T15:43:12.875Z,120.43
2018-12-03T15:45:42.217Z,122.83
2018-12-03T15:48:11.516Z,124.12
2018-12-03T15:50:40.956Z,127.83
2018-12-03T15:53:10.223Z,140.10
2018-12-03T15:55:40.730Z,122.97
2018-12-03T15:58:10.123Z,122.40
2018-12-03T16:00:39.560Z,128.77
2018-12-03T16:03:08.928Z,127.47
2018-12-03T16:05:38.300Z,126.60
2018-12-03T16:08:07.596Z,127.00
2018-12-03T16:13:09.292Z,190.20
2018-12-03T16:15:38.603Z,172.37
2018-12-03T16:18:07.946Z,170.00
2018-12-03T16:20:37.268Z,144.83
2018-12-03T16:23:06.747Z,136.57
2018-12-03T16:25:36.024Z,135.03
2018-12-03T16:28:09.106Z,141.20
2018-12-03T16:30:39.243Z,139.30
2018-12-03T16:33:08.569Z,136.83
2018-12-03T16:35:38.266Z,147.17
2018-12-03T16:38:07.604Z,152.00
2018-12-03T16:40:36.917Z,144.17
2018-12-03T16:43:06.588Z,148.53
2018-12-03T16:45:38.920Z,146.63
2018-12-03T16:48:10.236Z,135.97
2018-12-03T16:50:39.619Z,141.53
2018-12-03T16:53:08.981Z,143.67
2018-12-03T16:55:42.289Z,168.78
2018-12-03T16:58:11.806Z,162.17
2018-12-03T17:00:41.652Z,148.07
2018-12-03T17:03:11.157Z,153.10
2018-12-03T17:05:43.578Z,142.83
2018-12-03T17:08:13.216Z,150.37
2018-12-03T17:10:43.028Z,126.77
2018-12-03T17:13:12.944Z,130.73
2018-12-03T17:15:45.957Z,128.20
2018-12-03T17:18:17.908Z,129.70
2018-12-03T17:23:29.352Z,154.80
2018-12-03T17:25:58.800Z,156.40
2018-12-03T17:28:28.094Z,151.50
2018-12-03T17:30:57.514Z,148.60
2018-12-03T17:33:33.359Z,142.07
2018-12-03T17:36:02.636Z,148.47
2018-12-03T17:38:31.942Z,144.30
2018-12-03T17:41:02.289Z,145.83
2018-12-03T17:43:31.649Z,153.37
2018-12-03T17:46:01.099Z,139.87
2018-12-03T17:48:30.538Z,185.93
2018-12-03T17:50:59.849Z,172.53
2018-12-03T17:53:29.386Z,159.93
2018-12-03T17:55:58.704Z,164.17
2018-12-03T17:58:30.046Z,154.73
2018-12-03T18:00:59.457Z,233.70
2018-12-03T18:06:02.058Z,136.27
2018-12-03T18:11:00.247Z,127.33
2018-12-03T18:13:29.647Z,159.17
2018-12-03T18:15:59.025Z,160.17
2018-12-03T18:18:28.309Z,153.50
2018-12-03T18:23:30.183Z,161.77
2018-12-03T18:28:28.329Z,167.73
2018-12-03T18:30:57.659Z,154.87
2018-12-03T18:33:27.582Z,191.10
2018-12-03T18:35:57.312Z,175.67
2018-12-03T18:38:26.893Z,228.77
2018-12-03T18:40:56.393Z,211.63
2018-12-03T18:43:25.700Z,210.20
2018-12-03T18:45:55.059Z,188.77
2018-12-03T18:48:24.430Z,204.10
2018-12-03T18:50:55.096Z,186.47
2018-12-03T18:53:26.503Z,198.07
2018-12-03T18:55:57.099Z,237.93
2018-12-03T18:58:33.767Z,196.47
2018-12-03T19:01:05.077Z,211.63
2018-12-03T19:03:34.486Z,207.27
2018-12-03T19:06:04.791Z,198.43
2018-12-03T19:08:34.127Z,186.90
2018-12-03T19:11:03.481Z,233.75
2018-12-03T19:13:32.818Z,210.47
2018-12-03T19:16:02.247Z,208.70
2018-12-03T19:18:31.610Z,252.50
2018-12-03T19:21:06.537Z,174.30
2018-12-03T19:23:36.702Z,155.50
2018-12-03T19:26:06.021Z,147.03
2018-12-03T19:28:35.349Z,157.80
2018-12-03T19:31:07.612Z,178.73
2018-12-03T19:33:39.093Z,164.17
2018-12-03T19:36:30.166Z,170.62
2018-12-03T19:39:01.533Z,144.00
2018-12-03T19:41:32.079Z,164.80
2018-12-03T19:44:01.564Z,170.77
2018-12-03T19:46:30.904Z,167.30
2018-12-03T19:49:00.247Z,163.93
2018-12-03T19:51:29.728Z,174.62
2018-12-03T19:53:59.584Z,164.83
2018-12-03T19:56:29.192Z,171.70
2018-12-03T19:58:58.514Z,166.20
2018-12-03T20:01:27.787Z,151.47
2018-12-03T20:03:57.577Z,162.57
2018-12-03T20:06:26.969Z,127.70
2018-12-03T20:08:56.375Z,132.03
2018-12-03T20:11:25.859Z,143.37
2018-12-03T20:13:55.277Z,140.50
2018-12-03T20:16:24.794Z,119.93
2018-12-03T20:18:54.149Z,131.37
2018-12-03T20:21:25.184Z,122.13
2018-12-03T20:23:58.278Z,137.03
2018-12-03T20:26:40.833Z,131.70
2018-12-03T20:29:26.155Z,133.13
2018-12-03T20:32:43.760Z,137.43
2018-12-03T20:35:24.382Z,125.63
2018-12-03T20:38:04.752Z,127.63
2018-12-03T20:40:43.251Z,128.27
2018-12-03T20:43:19.879Z,231.73
2018-12-03T20:46:00.599Z,225.77
2018-12-03T20:49:44.930Z,140.33
2018-12-03T20:52:20.903Z,144.47
2018-12-03T20:54:52.563Z,142.37
2018-12-03T20:57:21.903Z,145.83
2018-12-03T20:59:52.009Z,138.60
2018-12-03T21:02:22.879Z,146.53
2018-12-03T21:04:52.186Z,138.20
2018-12-03T21:07:21.640Z,118.63
2018-12-03T21:09:51.074Z,103.27
2018-12-03T21:12:20.423Z,101.43
2018-12-03T21:14:49.734Z,109.87
2018-12-03T21:17:20.100Z,89.30
2018-12-03T21:19:55.049Z,97.35
2018-12-03T21:22:24.389Z,89.57
2018-12-03T21:24:53.871Z,82.50
2018-12-03T21:27:23.373Z,121.67
2018-12-03T21:29:52.860Z,125.03
2018-12-03T21:32:22.248Z,112.50
2018-12-03T21:34:51.546Z,118.93
2018-12-03T21:37:20.997Z,129.73
2018-12-03T21:39:50.272Z,126.77
2018-12-03T21:42:19.570Z,118.77
2018-12-03T21:44:50.364Z,134.60
2018-12-03T21:47:20.348Z,138.77
2018-12-03T21:49:49.923Z,120.57
2018-12-03T21:56:00.294Z,145.87
2018-12-03T21:58:29.725Z,130.67
2018-12-03T22:00:59.115Z,147.97
2018-12-03T22:03:28.997Z,144.77
2018-12-03T22:05:58.431Z,133.73
2018-12-03T22:08:27.882Z,112.53
2018-12-03T22:10:57.237Z,137.47
2018-12-03T22:13:26.627Z,103.67
2018-12-03T22:15:55.938Z,129.43
2018-12-03T22:18:28.233Z,122.03
2018-12-03T22:20:57.814Z,122.03
2018-12-03T22:23:27.356Z,114.37
2018-12-03T22:25:56.858Z,107.67
2018-12-03T22:28:26.339Z,122.77
2018-12-03T22:30:55.767Z,120.10
2018-12-03T22:33:25.078Z,137.27
2018-12-03T22:35:54.389Z,147.53
2018-12-03T22:38:23.824Z,122.63
2018-12-03T22:40:54.498Z,103.20
2018-12-03T22:43:23.817Z,129.87
2018-12-03T22:45:53.122Z,104.37
2018-12-03T22:48:22.401Z,116.43
2018-12-03T22:50:51.678Z,125.40
2018-12-03T22:53:21.065Z,128.62
2018-12-03T22:55:50.386Z,118.40
2018-12-03T22:58:19.741Z,135.83
2018-12-03T23:00:59.405Z,135.00
2018-12-03T23:03:28.652Z,133.93
2018-12-03T23:05:57.922Z,128.20
2018-12-03T23:08:27.222Z,137.73
2018-12-03T23:10:56.654Z,134.10
2018-12-03T23:13:26.037Z,117.87
2018-12-03T23:15:55.775Z,120.83
2018-12-03T23:18:25.150Z,129.93
2018-12-03T23:20:54.729Z,115.70
2018-12-03T23:23:24.056Z,113.97
2018-12-03T23:25:53.584Z,120.53
2018-12-03T23:28:22.979Z,124.90
2018-12-03T23:30:52.460Z,126.83
2018-12-03T23:33:21.750Z,123.03
2018-12-03T23:35:51.445Z,110.40
2018-12-03T23:38:21.208Z,118.20
2018-12-03T23:40:50.477Z,98.57
2018-12-03T23:43:19.739Z,86.63
2018-12-03T23:45:50.549Z,95.93
2018-12-03T23:48:19.873Z,96.73
2018-12-03T23:50:49.336Z,86.10
2018-12-03T23:53:18.586Z,87.40
2018-12-03T23:55:48.378Z,97.47
